Time;durP1;ratioP1;P1;durP2;ratioP2;P2;SDS_P1;SDS_P2;PMS_P1;PMS_P2;Temp;Humidity;BMP_temperature;BMP_pressure;BME280_temperature;BME280_humidity;BME280_pressure;Samples;Min_cycle;Max_cycle;Signal;HPM_P1;HPM_P2
2022/05/03 00:01:02;;;;;;;18.40;9.10;;;10.10;99.90;;;;;;5012268;28;20300;-63
2022/05/03 00:03:37;;;;;;;17.02;9.43;;;10.10;99.90;;;;;;5010749;28;20081;-63
2022/05/03 00:06:34;;;;;;;17.10;9.23;;;10.00;99.90;;;;;;5010919;28;20083;-63
2022/05/03 00:09:07;;;;;;;17.33;8.90;;;10.00;99.90;;;;;;5011942;28;20068;-64
2022/05/03 00:11:49;;;;;;;16.98;9.50;;;9.90;99.90;;;;;;5012344;28;20044;-64
2022/05/03 00:14:18;;;;;;;16.20;9.00;;;9.90;99.90;;;;;;5013149;28;20076;-64
2022/05/03 00:16:44;;;;;;;;;;;9.80;99.90;;;;;;5011352;28;20025;-64
2022/05/03 00:19:10;;;;;;;19.27;9.32;;;9.80;99.90;;;;;;5012002;28;19902;-64
2022/05/03 00:21:38;;;;;;;16.05;8.77;;;9.70;99.90;;;;;;5012141;28;20565;-64
2022/05/03 00:24:05;;;;;;;16.48;9.20;;;9.70;99.90;;;;;;5012299;28;20029;-60
2022/05/03 00:26:32;;;;;;;16.30;8.90;;;9.60;99.90;;;;;;5011984;28;20482;-63
2022/05/03 00:28:59;;;;;;;16.55;9.35;;;9.60;99.90;;;;;;5011905;28;20030;-63
2022/05/03 00:31:26;;;;;;;16.88;8.60;;;9.50;99.90;;;;;;5012087;28;20025;-63
2022/05/03 00:33:57;;;;;;;15.10;8.60;;;9.50;99.90;;;;;;5011924;28;20164;-64
2022/05/03 00:36:23;;;;;;;17.25;8.52;;;9.50;99.90;;;;;;5012195;28;20017;-63
2022/05/03 00:38:50;;;;;;;15.57;8.63;;;9.50;99.90;;;;;;5011865;28;20565;-62
2022/05/03 00:41:40;;;;;;;17.55;9.32;;;9.60;99.90;;;;;;5015955;28;20034;-63
2022/05/03 00:47:20;;;;;;;16.08;8.50;;;9.60;99.90;;;;;;5015139;28;20110;-61
2022/05/03 00:50:04;;;;;;;15.57;8.43;;;9.50;99.90;;;;;;5011817;28;20073;-61
2022/05/03 00:52:36;;;;;;;16.50;8.75;;;9.50;99.90;;;;;;5011954;28;20462;-64
2022/05/03 00:55:27;;;;;;;16.35;8.68;;;9.40;99.90;;;;;;5011531;28;20025;-64
2022/05/03 00:58:17;;;;;;;15.73;8.80;;;9.40;99.90;;;;;;5011599;28;20077;-64
2022/05/03 01:00:54;;;;;;;16.50;8.77;;;9.30;99.90;;;;;;5015716;28;20014;-64
2022/05/03 01:03:40;;;;;;;16.25;9.48;;;9.30;99.90;;;;;;5030633;28;20474;-64
2022/05/03 01:06:25;;;;;;;16.35;8.82;;;9.20;99.90;;;;;;5030479;28;20417;-64
2022/05/03 01:09:05;;;;;;;16.65;9.15;;;9.20;99.90;;;;;;5015097;28;20025;-63
2022/05/03 01:11:31;;;;;;;15.93;8.90;;;9.20;99.90;;;;;;5015539;28;20018;-64
2022/05/03 01:14:12;;;;;;;17.13;9.75;;;9.20;99.90;;;;;;5015119;28;20033;-64
2022/05/03 01:16:52;;;;;;;16.15;8.98;;;9.20;99.90;;;;;;5015213;28;20026;-62
2022/05/03 01:19:56;;;;;;;17.20;9.15;;;9.20;99.90;;;;;;5015009;28;20040;-64
2022/05/03 01:23:06;;;;;;;17.80;9.45;;;9.20;99.90;;;;;;5004463;28;20045;-63
2022/05/03 01:26:09;;;;;;;15.57;8.45;;;9.30;99.90;;;;;;5013625;28;20041;-62
2022/05/03 01:29:02;;;;;;;17.05;9.38;;;9.20;99.90;;;;;;5014992;28;20022;-62
2022/05/03 01:31:28;;;;;;;17.50;9.50;;;9.30;99.90;;;;;;5014885;28;20068;-64
2022/05/03 01:34:00;;;;;;;15.85;8.80;;;9.20;99.90;;;;;;5014600;28;20043;-64
2022/05/03 01:37:00;;;;;;;17.17;9.18;;;9.30;99.90;;;;;;5015126;28;20413;-65
2022/05/03 01:40:12;;;;;;;16.67;9.15;;;9.30;99.90;;;;;;5015343;28;20386;-62
2022/05/03 01:42:57;;;;;;;17.42;9.52;;;9.20;99.90;;;;;;5015392;28;20017;-61
2022/05/03 01:45:41;;;;;;;17.73;9.45;;;9.20;99.90;;;;;;5015319;28;20417;-63
2022/05/03 01:48:25;;;;;;;18.75;8.77;;;9.10;99.90;;;;;;5014673;28;20021;-63
2022/05/03 01:51:12;;;;;;;17.08;8.88;;;9.00;99.90;;;;;;5014555;28;20014;-62
2022/05/03 01:53:46;;;;;;;16.55;8.77;;;9.00;99.90;;;;;;5014305;28;20061;-64
2022/05/03 01:56:18;;;;;;;16.33;8.90;;;8.90;99.90;;;;;;5014649;28;20014;-64
2022/05/03 01:59:21;;;;;;;16.83;9.20;;;8.90;99.90;;;;;;5014514;28;20471;-64
2022/05/03 02:01:57;;;;;;;18.15;9.20;;;8.90;99.90;;;;;;5013409;28;20030;-65
2022/05/03 02:04:40;;;;;;;19.23;10.02;;;8.90;99.90;;;;;;5014286;28;20026;-64
2022/05/03 02:07:36;;;;;;;16.33;8.77;;;8.80;99.90;;;;;;5014357;28;20037;-60
2022/05/03 02:10:36;;;;;;;17.98;10.88;;;8.70;99.90;;;;;;5014119;28;20040;-63
2022/05/03 02:13:27;;;;;;;15.88;9.05;;;8.70;99.90;;;;;;5014341;28;20369;-67
2022/05/03 02:16:02;;;;;;;16.08;8.93;;;8.60;99.90;;;;;;5014349;28;20025;-64
2022/05/03 02:18:47;;;;;;;17.95;9.15;;;8.60;99.90;;;;;;5014165;28;20101;-62
2022/05/03 02:21:17;;;;;;;16.95;9.30;;;8.50;99.90;;;;;;5014238;28;20441;-63
2022/05/03 02:24:11;;;;;;;15.93;9.10;;;8.60;99.90;;;;;;5014348;28;20030;-63
2022/05/03 02:26:54;;;;;;;17.65;8.98;;;8.60;99.90;;;;;;5014518;28;20048;-64
2022/05/03 02:29:31;;;;;;;15.93;8.68;;;8.50;99.90;;;;;;5014027;28;20022;-62
2022/05/03 02:32:03;;;;;;;16.00;9.30;;;8.50;99.90;;;;;;5013966;28;20108;-62
2022/05/03 02:34:32;;;;;;;16.30;9.27;;;8.50;99.90;;;;;;5012573;28;20021;-64
2022/05/03 02:37:10;;;;;;;16.90;9.43;;;8.40;99.90;;;;;;5014106;28;20026;-63
2022/05/03 02:39:38;;;;;;;;;;;8.40;99.90;;;;;;5012995;28;20099;-63
2022/05/03 02:42:05;;;;;;;16.15;9.18;;;;;;;;;;5013959;28;20424;-61
2022/05/03 02:44:33;;;;;;;15.68;8.75;;;8.40;99.90;;;;;;5013783;28;20080;-64
2022/05/03 02:47:04;;;;;;;17.02;9.45;;;;;;;;;;5013703;28;20025;-64
2022/05/03 02:49:50;;;;;;;17.13;9.15;;;8.30;99.90;;;;;;5012134;28;20026;-65
2022/05/03 02:52:33;;;;;;;16.77;9.55;;;8.20;99.90;;;;;;5013410;28;20459;-64
2022/05/03 02:55:21;;;;;;;15.70;8.70;;;8.20;99.90;;;;;;5013343;28;20038;-63
2022/05/03 02:58:19;;;;;;;15.03;8.37;;;8.20;99.90;;;;;;5013826;28;20549;-62
2022/05/03 03:04:04;;;;;;;15.63;8.65;;;8.20;99.90;;;;;;5013370;28;20064;-65
2022/05/03 03:06:37;;;;;;;15.95;9.38;;;8.20;99.90;;;;;;5013490;28;20027;-64
2022/05/03 03:09:03;;;;;;;15.40;8.93;;;8.10;99.90;;;;;;5013281;28;20382;-65
2022/05/03 03:12:01;;;;;;;17.05;8.75;;;8.20;99.90;;;;;;5013406;28;20076;-63
2022/05/03 03:14:34;;;;;;;15.02;8.93;;;8.10;99.90;;;;;;5013079;28;20068;-63
2022/05/03 03:17:08;;;;;;;16.13;8.80;;;8.10;99.90;;;;;;5013265;28;20490;-64
2022/05/03 03:19:39;;;;;;;18.50;10.48;;;8.00;99.90;;;;;;5013113;28;20030;-64
2022/05/03 03:22:11;;;;;;;15.95;9.00;;;8.00;99.90;;;;;;5012534;28;20026;-63
2022/05/03 03:24:38;;;;;;;15.77;9.05;;;7.90;99.90;;;;;;5027984;28;20413;-64
2022/05/03 03:27:06;;;;;;;16.15;8.85;;;8.00;99.90;;;;;;5013061;28;20018;-64
2022/05/03 03:29:32;;;;;;;16.17;9.05;;;7.90;99.90;;;;;;5027889;28;20113;-64
2022/05/03 03:32:00;;;;;;;17.60;8.63;;;7.90;99.90;;;;;;5011697;28;20022;-64
2022/05/03 03:34:28;;;;;;;16.38;8.75;;;7.90;99.90;;;;;;5012649;28;20478;-64
2022/05/03 03:37:01;;;;;;;17.33;9.07;;;7.90;99.90;;;;;;5027936;28;20420;-63
2022/05/03 03:39:34;;;;;;;16.73;9.27;;;7.80;99.90;;;;;;5013100;28;20099;-63
2022/05/03 03:42:05;;;;;;;18.17;9.23;;;7.80;99.90;;;;;;5012922;28;20042;-64
2022/05/03 03:44:31;;;;;;;17.10;8.75;;;7.80;99.90;;;;;;5012782;28;20486;-64
2022/05/03 03:46:58;;;;;;;15.73;9.38;;;7.90;99.90;;;;;;5028261;28;20029;-63
2022/05/03 03:49:23;;;;;;;16.45;9.57;;;7.90;99.90;;;;;;5011663;28;20029;-63
2022/05/03 03:51:50;;;;;;;16.42;9.65;;;7.90;99.90;;;;;;5013046;28;20018;-62
2022/05/03 03:54:17;;;;;;;15.63;9.05;;;7.90;99.90;;;;;;5012947;28;20018;-63
2022/05/03 03:56:45;;;;;;;17.63;9.52;;;7.80;99.90;;;;;;5012730;28;20025;-63
2022/05/03 03:59:12;;;;;;;17.50;9.20;;;7.80;99.90;;;;;;5012280;28;20049;-63
2022/05/03 04:01:39;;;;;;;17.08;9.40;;;7.80;99.90;;;;;;5012506;28;20022;-63
2022/05/03 04:04:06;;;;;;;18.67;10.25;;;7.70;99.90;;;;;;5012309;28;20425;-64
2022/05/03 04:06:31;;;;;;;17.95;9.38;;;7.70;99.90;;;;;;5012245;28;20025;-63
2022/05/03 04:08:57;;;;;;;17.13;10.00;;;7.70;99.90;;;;;;5012211;28;20037;-62
2022/05/03 04:11:22;;;;;;;18.48;9.50;;;7.70;99.90;;;;;;5012164;28;20042;-64
2022/05/03 04:13:48;;;;;;;20.70;9.75;;;7.60;99.90;;;;;;5010959;28;20374;-65
2022/05/03 04:16:14;;;;;;;18.00;10.05;;;7.70;99.90;;;;;;5012177;28;20029;-64
2022/05/03 04:18:44;;;;;;;16.63;10.30;;;7.70;99.90;;;;;;5012373;28;20022;-64
2022/05/03 04:21:17;;;;;;;17.23;10.18;;;7.70;99.90;;;;;;5027395;28;20022;-62
2022/05/03 04:23:45;;;;;;;16.88;9.80;;;7.60;99.90;;;;;;5012044;28;20014;-64
2022/05/03 04:26:11;;;;;;;18.33;11.02;;;7.60;99.90;;;;;;5012050;28;20021;-63
2022/05/03 04:28:38;;;;;;;19.13;10.23;;;7.50;99.90;;;;;;5012032;28;20478;-64
2022/05/03 04:31:05;;;;;;;17.33;10.20;;;7.50;99.90;;;;;;5012140;28;20363;-63
2022/05/03 04:33:31;;;;;;;17.00;10.18;;;7.50;99.90;;;;;;5013894;28;20017;-63
2022/05/03 04:35:56;;;;;;;18.85;10.02;;;7.70;99.90;;;;;;5015998;28;20018;-61
2022/05/03 04:38:22;;;;;;;17.15;9.68;;;7.70;99.90;;;;;;5016190;28;20491;-62
2022/05/03 04:40:48;;;;;;;17.90;10.38;;;7.80;99.90;;;;;;5031611;28;20076;-63
2022/05/03 04:43:13;;;;;;;19.67;10.40;;;7.90;99.90;;;;;;5016544;28;20018;-63
2022/05/03 04:45:39;;;;;;;17.65;10.02;;;7.90;99.90;;;;;;5015647;28;20355;-62
2022/05/03 04:48:05;;;;;;;18.40;10.15;;;7.90;99.90;;;;;;5015561;28;20029;-64
2022/05/03 04:50:31;;;;;;;17.73;9.98;;;8.00;99.90;;;;;;5014520;28;20021;-63
2022/05/03 04:52:57;;;;;;;18.10;10.57;;;8.00;99.90;;;;;;5016112;28;20022;-64
2022/05/03 04:55:23;;;;;;;17.40;9.90;;;8.10;99.90;;;;;;5014312;28;20018;-64
2022/05/03 04:57:49;;;;;;;17.20;9.90;;;8.10;99.90;;;;;;5013585;28;20113;-64
2022/05/03 05:00:16;;;;;;;18.08;10.70;;;8.00;99.90;;;;;;5014132;28;20513;-62
2022/05/03 05:02:41;;;;;;;18.10;10.05;;;8.00;99.90;;;;;;5015199;28;20463;-63
2022/05/03 05:05:07;;;;;;;20.35;11.05;;;7.90;99.90;;;;;;5014491;28;20097;-63
2022/05/03 05:07:33;;;;;;;18.25;10.35;;;8.00;99.90;;;;;;5014924;28;20018;-64
2022/05/03 05:12:42;;;;;;;17.30;9.77;;;8.10;99.90;;;;;;5015350;28;20029;-64
2022/05/03 05:15:08;;;;;;;18.05;9.68;;;8.20;99.90;;;;;;5014587;28;20021;-63
2022/05/03 05:17:34;;;;;;;18.08;10.60;;;8.20;99.90;;;;;;5014647;28;20460;-64
2022/05/03 05:20:00;;;;;;;17.13;10.05;;;8.30;99.90;;;;;;5014324;28;20028;-64
2022/05/03 05:22:26;;;;;;;19.75;11.30;;;8.40;99.90;;;;;;5013975;28;20466;-64
2022/05/03 05:24:51;;;;;;;19.65;11.35;;;8.40;99.90;;;;;;5014265;28;20093;-68
2022/05/03 05:27:18;;;;;;;17.67;10.43;;;8.50;99.90;;;;;;5014193;28;20022;-64
2022/05/03 05:29:43;;;;;;;18.55;9.88;;;8.60;99.90;;;;;;5013157;28;20021;-63
2022/05/03 05:32:09;;;;;;;19.90;10.27;;;8.60;99.90;;;;;;5014262;28;20081;-62
2022/05/03 05:34:35;;;;;;;19.55;9.38;;;8.60;99.90;;;;;;5014332;28;20392;-64
2022/05/03 05:37:01;;;;;;;19.85;10.10;;;8.70;99.90;;;;;;5014317;28;20021;-63
2022/05/03 05:39:27;;;;;;;17.27;9.88;;;8.80;99.90;;;;;;5013885;28;20079;-63
2022/05/03 05:41:56;;;;;;;17.00;10.68;;;8.90;99.90;;;;;;5029384;28;20053;-64
2022/05/03 05:44:23;;;;;;;17.60;10.23;;;9.00;99.90;;;;;;5013715;28;20433;-68
2022/05/03 05:46:48;;;;;;;16.35;9.60;;;9.10;99.90;;;;;;5014190;28;20036;-68
2022/05/03 05:49:14;;;;;;;16.58;9.85;;;9.10;99.90;;;;;;5012758;28;20026;-63
2022/05/03 05:51:40;;;;;;;17.88;10.05;;;9.30;99.90;;;;;;5028633;28;20527;-64
2022/05/03 05:54:05;;;;;;;16.95;9.65;;;9.30;99.90;;;;;;5013869;28;20106;-64
2022/05/03 05:56:31;;;;;;;17.00;10.48;;;9.30;99.90;;;;;;5012242;28;20450;-64
2022/05/03 05:58:57;;;;;;;17.95;10.50;;;9.50;99.90;;;;;;5014432;28;20159;-64
2022/05/03 06:01:26;;;;;;;17.17;10.13;;;9.60;99.90;;;;;;5014229;28;20428;-64
2022/05/03 06:03:52;;;;;;;23.02;11.23;;;9.70;99.90;;;;;;5013837;28;20028;-64
2022/05/03 06:06:18;;;;;;;18.08;10.20;;;9.70;99.90;;;;;;5013681;28;20026;-62
2022/05/03 06:08:43;;;;;;;16.52;9.70;;;9.80;99.90;;;;;;5013987;28;20044;-66
2022/05/03 06:11:09;;;;;;;19.00;10.93;;;9.90;99.90;;;;;;5013858;28;20048;-64
2022/05/03 06:13:35;;;;;;;18.65;10.57;;;10.00;99.90;;;;;;5013245;28;20032;-63
2022/05/03 06:16:08;;;;;;;16.63;9.95;;;10.00;99.90;;;;;;5014241;28;20048;-62
2022/05/03 06:18:34;;;;;;;16.38;9.52;;;10.20;99.90;;;;;;5012998;28;20021;-63
2022/05/03 06:21:01;;;;;;;19.85;11.95;;;10.20;99.90;;;;;;5012864;28;20028;-65
2022/05/03 06:23:27;;;;;;;18.38;11.30;;;10.30;99.90;;;;;;5013247;28;20113;-63
2022/05/03 06:25:53;;;;;;;18.20;9.85;;;10.30;99.90;;;;;;5027881;28;20060;-64
2022/05/03 06:28:19;;;;;;;16.58;10.30;;;10.30;99.30;;;;;;5013148;28;20108;-64
2022/05/03 06:30:44;;;;;;;16.85;9.68;;;10.40;99.20;;;;;;5013044;28;20021;-64
2022/05/03 06:33:10;;;;;;;15.43;9.73;;;10.30;98.20;;;;;;5012668;28;20018;-62
2022/05/03 06:35:36;;;;;;;18.27;11.00;;;10.30;97.50;;;;;;5027370;28;20108;-64
2022/05/03 06:38:01;;;;;;;17.80;10.30;;;10.30;97.80;;;;;;5012883;28;20065;-61
2022/05/03 06:40:27;;;;;;;17.75;10.55;;;10.40;97.90;;;;;;5012897;28;20605;-63
2022/05/03 06:42:54;;;;;;;17.17;9.95;;;10.50;98.10;;;;;;5012886;28;20021;-62
2022/05/03 06:45:20;;;;;;;26.30;15.52;;;10.60;97.80;;;;;;5013015;28;20026;-62
2022/05/03 06:47:48;;;;;;;20.77;12.50;;;10.70;98.50;;;;;;5012879;28;20051;-62
2022/05/03 06:50:14;;;;;;;17.77;9.90;;;10.80;97.80;;;;;;5012592;28;20026;-62
2022/05/03 06:52:40;;;;;;;17.77;10.13;;;10.90;98.10;;;;;;5013355;28;20014;-62
2022/05/03 06:55:06;;;;;;;19.48;9.60;;;11.00;97.50;;;;;;5012640;28;20091;-64
2022/05/03 06:57:32;;;;;;;18.65;9.52;;;11.00;96.10;;;;;;5013215;28;20037;-64
2022/05/03 07:00:01;;;;;;;15.18;9.65;;;11.10;95.80;;;;;;5012611;28;20018;-64
2022/05/03 07:02:30;;;;;;;19.63;9.70;;;11.10;95.90;;;;;;5012979;28;20537;-64
2022/05/03 07:04:55;;;;;;;16.05;9.45;;;11.20;96.20;;;;;;5027622;28;20041;-62
2022/05/03 07:07:21;;;;;;;15.88;9.27;;;11.30;95.60;;;;;;5011724;28;20079;-62
2022/05/03 07:09:47;;;;;;;16.52;9.32;;;11.40;93.90;;;;;;5012490;28;20120;-64
2022/05/03 07:12:12;;;;;;;15.77;8.70;;;11.40;93.60;;;;;;5012669;28;20098;-63
2022/05/03 07:14:38;;;;;;;15.43;8.77;;;11.40;92.40;;;;;;5011544;28;20033;-62
2022/05/03 07:17:05;;;;;;;20.20;9.20;;;11.50;92.50;;;;;;5011929;28;20506;-64
2022/05/03 07:24:59;;;;;;;14.38;8.38;;;11.60;90.70;;;;;;5012192;28;20362;-62
2022/05/03 07:27:24;;;;;;;15.90;8.15;;;11.70;86.10;;;;;;5012176;28;20258;-63
2022/05/03 07:29:50;;;;;;;16.27;9.30;;;11.70;85.60;;;;;;5012522;28;20022;-64
2022/05/03 07:32:15;;;;;;;14.80;7.90;;;11.80;87.00;;;;;;5011049;28;20025;-63
2022/05/03 07:34:41;;;;;;;16.23;8.50;;;12.00;82.30;;;;;;5012293;28;20044;-64
2022/05/03 07:37:07;;;;;;;15.23;8.40;;;12.10;83.30;;;;;;5012103;28;20075;-64
2022/05/03 07:39:32;;;;;;;16.98;8.10;;;12.20;82.90;;;;;;5010518;28;20139;-63
2022/05/03 07:41:58;;;;;;;16.00;8.90;;;12.10;80.00;;;;;;5012191;28;20033;-63
2022/05/03 07:44:24;;;;;;;14.90;8.50;;;12.10;80.40;;;;;;5011826;28;20149;-64
2022/05/03 07:46:52;;;;;;;13.88;7.95;;;12.20;80.90;;;;;;5011888;28;20022;-63
2022/05/03 07:49:18;;;;;;;;;;;12.30;80.80;;;;;;5012387;28;20026;-65
2022/05/03 07:51:43;;;;;;;15.23;8.27;;;12.30;80.90;;;;;;5027148;28;19908;-65
2022/05/03 07:54:09;;;;;;;15.55;8.13;;;12.40;81.00;;;;;;5010722;28;20014;-64
2022/05/03 07:56:36;;;;;;;16.65;8.40;;;12.40;80.10;;;;;;5012002;28;20017;-64
2022/05/03 07:59:02;;;;;;;15.70;8.60;;;12.40;80.90;;;;;;5010546;28;20026;-62
2022/05/03 08:01:29;;;;;;;14.80;8.30;;;12.50;82.10;;;;;;5011988;28;20061;-64
2022/05/03 08:03:54;;;;;;;15.38;9.00;;;12.60;82.10;;;;;;5012011;28;20032;-64
2022/05/03 08:06:23;;;;;;;15.98;9.10;;;12.70;83.10;;;;;;5011730;28;20018;-64
2022/05/03 08:08:48;;;;;;;16.30;8.95;;;12.80;82.20;;;;;;5027081;28;20630;-63
2022/05/03 08:11:14;;;;;;;15.45;9.00;;;12.70;81.80;;;;;;5012084;28;20057;-64
2022/05/03 08:13:41;;;;;;;17.15;8.63;;;12.80;82.50;;;;;;5012422;28;20117;-65
2022/05/03 08:16:19;;;;;;;22.00;9.20;;;12.80;82.50;;;;;;5016854;28;20014;-65
2022/05/03 08:18:45;;;;;;;18.38;8.88;;;12.80;84.50;;;;;;5013968;28;20120;-64
2022/05/03 08:21:11;;;;;;;15.25;9.00;;;12.90;84.70;;;;;;5014447;28;20053;-64
2022/05/03 08:23:38;;;;;;;16.48;9.63;;;13.10;85.70;;;;;;5011214;28;20029;-62
2022/05/03 08:26:03;;;;;;;17.17;8.75;;;13.30;85.60;;;;;;5010679;28;20474;-64
2022/05/03 08:28:29;;;;;;;15.77;9.13;;;13.40;86.00;;;;;;5011900;28;20026;-62
2022/05/03 08:30:54;;;;;;;15.55;9.25;;;13.50;85.80;;;;;;5010525;28;20022;-64
2022/05/03 08:33:20;;;;;;;19.60;9.10;;;13.70;84.80;;;;;;5011776;28;20029;-63
2022/05/03 08:35:46;;;;;;;16.85;9.85;;;13.70;84.70;;;;;;5011862;28;20022;-64
2022/05/03 08:43:43;;;;;;;15.50;9.18;;;13.90;85.10;;;;;;5012128;28;20037;-65
2022/05/03 08:46:09;;;;;;;18.70;9.85;;;13.90;84.90;;;;;;5011685;28;20018;-68
2022/05/03 08:48:40;;;;;;;18.20;9.00;;;14.10;84.80;;;;;;5012177;28;20099;-68
2022/05/03 08:51:09;;;;;;;15.68;8.90;;;14.30;84.80;;;;;;4663381;28;9999727;-66
2022/05/03 08:53:35;;;;;;;15.27;9.25;;;14.40;84.10;;;;;;5008140;28;20033;-65
2022/05/03 08:56:02;;;;;;;18.15;10.25;;;14.30;83.70;;;;;;5008115;28;20108;-68
2022/05/03 08:58:28;;;;;;;16.02;9.98;;;14.20;84.00;;;;;;5008502;28;20164;-68
2022/05/03 09:00:53;;;;;;;20.92;9.73;;;14.20;85.80;;;;;;5009840;28;20439;-67
2022/05/03 09:03:20;;;;;;;15.38;9.15;;;14.20;84.70;;;;;;5009980;28;20107;-67
2022/05/03 09:05:46;;;;;;;16.13;9.38;;;14.20;84.60;;;;;;5009073;28;20053;-65
2022/05/03 09:08:12;;;;;;;15.50;9.15;;;14.30;85.40;;;;;;5009133;28;20051;-66
2022/05/03 09:10:38;;;;;;;16.83;9.32;;;14.30;84.70;;;;;;5009328;28;20018;-64
2022/05/03 09:13:17;;;;;;;15.80;9.27;;;14.40;85.00;;;;;;5008569;28;20022;-68
2022/05/03 09:15:43;;;;;;;17.10;9.70;;;14.20;84.60;;;;;;5009393;28;20097;-68
2022/05/03 09:18:19;;;;;;;15.63;9.55;;;14.30;84.80;;;;;;5009585;28;20144;-66
2022/05/03 09:23:47;;;;;;;16.58;9.35;;;14.70;84.50;;;;;;5013760;28;20087;-67
2022/05/03 09:26:22;;;;;;;16.77;9.65;;;14.70;84.40;;;;;;5015011;28;20022;-67
2022/05/03 09:28:48;;;;;;;16.42;10.02;;;14.70;84.70;;;;;;5015312;28;20045;-66
2022/05/03 09:31:41;;;;;;;15.55;9.48;;;14.80;84.90;;;;;;5015424;28;20029;-67
2022/05/03 09:34:23;;;;;;;17.20;9.50;;;15.10;85.00;;;;;;5015376;28;20021;-67
2022/05/03 09:36:51;;;;;;;15.77;9.43;;;15.30;84.00;;;;;;5014971;28;20041;-67
2022/05/03 09:39:27;;;;;;;15.60;9.40;;;15.30;83.30;;;;;;5015164;28;20030;-66
2022/05/03 09:42:14;;;;;;;16.25;9.48;;;15.40;83.30;;;;;;5015237;28;20494;-67
2022/05/03 09:44:58;;;;;;;16.50;9.93;;;15.50;83.00;;;;;;5014983;28;20030;-68
2022/05/03 09:47:48;;;;;;;15.40;9.05;;;15.40;81.80;;;;;;5014860;28;20021;-67
2022/05/03 09:50:38;;;;;;;15.20;9.52;;;15.50;81.60;;;;;;5011135;28;20068;-69
2022/05/03 09:53:12;;;;;;;16.45;9.60;;;15.60;81.40;;;;;;5011503;28;20037;-66
2022/05/03 09:55:39;;;;;;;15.73;10.07;;;;;;;;;;5014556;28;20022;-68
2022/05/03 09:58:06;;;;;;;16.08;9.95;;;;;;;;;;5015165;28;20052;-67
2022/05/03 10:00:36;;;;;;;16.80;9.25;;;15.80;81.20;;;;;;5014317;28;20474;-67
2022/05/03 10:03:09;;;;;;;15.63;9.13;;;16.30;82.40;;;;;;5014555;28;20030;-67
2022/05/03 10:05:36;;;;;;;16.80;9.88;;;;;;;;;;5014538;28;20021;-67
2022/05/03 10:08:03;;;;;;;15.90;9.57;;;16.40;79.70;;;;;;5014616;28;20033;-67
2022/05/03 10:10:29;;;;;;;16.13;9.85;;;16.40;79.10;;;;;;5013858;28;20429;-67
2022/05/03 10:12:55;;;;;;;15.75;9.20;;;16.70;80.70;;;;;;5012822;28;20489;-68
2022/05/03 10:21:23;;;;;;;15.15;9.55;;;16.80;76.90;;;;;;5014176;28;20116;-67
2022/05/03 10:24:09;;;;;;;15.70;9.80;;;16.40;77.10;;;;;;5000491;28;20018;-68
2022/05/03 10:27:02;;;;;;;16.15;9.43;;;16.30;76.20;;;;;;5001916;28;20405;-65
2022/05/03 10:29:35;;;;;;;15.05;9.05;;;16.30;77.30;;;;;;5013885;28;20022;-66
2022/05/03 10:32:07;;;;;;;16.33;9.82;;;16.20;77.20;;;;;;5013198;28;20022;-66
2022/05/03 10:34:43;;;;;;;16.38;9.57;;;16.70;78.20;;;;;;5014164;28;20028;-68
2022/05/03 10:37:11;;;;;;;16.25;9.63;;;17.20;78.40;;;;;;5014193;28;20060;-68
2022/05/03 10:39:56;;;;;;;16.50;9.87;;;17.40;78.50;;;;;;5013682;28;20028;-66
2022/05/03 10:42:24;;;;;;;18.63;9.87;;;17.60;76.30;;;;;;4663260;28;9999599;-63
2022/05/03 10:44:52;;;;;;;16.17;9.80;;;17.60;76.30;;;;;;4991830;28;20026;-61
2022/05/03 10:47:20;;;;;;;16.98;10.20;;;17.50;75.10;;;;;;4992375;28;20035;-63
2022/05/03 10:50:17;;;;;;;16.90;9.85;;;17.30;75.90;;;;;;4992065;28;20022;-63
2022/05/03 10:53:01;;;;;;;18.83;10.63;;;17.50;76.30;;;;;;4994089;28;20026;-63
2022/05/03 10:55:29;;;;;;;16.98;9.98;;;17.60;76.90;;;;;;5011742;28;20030;-63
2022/05/03 10:58:14;;;;;;;18.85;10.82;;;17.80;77.30;;;;;;5011971;28;20026;-64
2022/05/03 11:01:16;;;;;;;17.67;11.10;;;17.80;76.20;;;;;;5012893;28;20091;-63
2022/05/03 11:03:48;;;;;;;17.00;10.07;;;17.60;73.90;;;;;;5012681;28;20026;-67
2022/05/03 11:06:21;;;;;;;16.27;9.65;;;17.60;75.30;;;;;;5013788;28;20017;-57
2022/05/03 11:11:39;;;;;;;17.80;10.70;;;18.50;76.60;;;;;;5013557;28;20030;-64
2022/05/03 11:16:44;;;;;;;16.98;11.20;;;20.60;72.60;;;;;;5013351;28;20088;-62
2022/05/03 11:19:14;;;;;;;19.42;11.57;;;21.10;70.10;;;;;;5012991;28;20021;-62
2022/05/03 11:21:40;;;;;;;16.83;11.10;;;21.50;69.40;;;;;;5012677;28;20022;-65
2022/05/03 11:24:22;;;;;;;18.23;12.55;;;22.50;68.70;;;;;;5012523;28;20029;-65
2022/05/03 11:27:03;;;;;;;17.83;11.25;;;22.70;69.00;;;;;;5013351;28;20088;-64
2022/05/03 11:29:31;;;;;;;18.17;12.00;;;22.60;66.80;;;;;;5011342;28;20022;-62
2022/05/03 11:31:59;;;;;;;20.27;12.13;;;22.90;67.30;;;;;;5012942;28;20469;-62
2022/05/03 11:34:26;;;;;;;18.77;12.02;;;23.40;66.40;;;;;;5012787;28;20552;-63
2022/05/03 11:36:52;;;;;;;17.65;12.65;;;23.40;64.70;;;;;;5013091;28;20026;-66
2022/05/03 11:39:20;;;;;;;32.15;26.23;;;23.70;64.00;;;;;;5011741;28;20393;-66
2022/05/03 11:41:46;;;;;;;24.50;17.17;;;23.40;64.00;;;;;;5012732;28;20028;-59
2022/05/03 11:44:15;;;;;;;18.35;12.38;;;23.10;64.30;;;;;;5012435;28;20028;-59
2022/05/03 11:46:43;;;;;;;18.33;12.15;;;23.00;63.60;;;;;;5012427;28;20490;-58
2022/05/03 11:49:11;;;;;;;21.50;12.65;;;23.50;65.00;;;;;;5011979;28;20026;-56
2022/05/03 11:57:19;;;;;;;18.98;13.15;;;24.20;61.50;;;;;;5012691;28;20033;-59
2022/05/03 11:59:45;;;;;;;19.75;13.65;;;23.60;62.00;;;;;;5012371;28;20026;-61
2022/05/03 12:02:28;;;;;;;19.60;12.95;;;23.50;61.50;;;;;;5011517;28;20026;-58
2022/05/03 12:05:11;;;;;;;17.23;12.18;;;24.20;63.60;;;;;;5012011;28;20022;-59
2022/05/03 12:07:51;;;;;;;17.40;12.27;;;24.60;60.20;;;;;;5012477;28;20420;-60
2022/05/03 12:10:25;;;;;;;20.23;12.48;;;24.40;60.00;;;;;;5012360;28;20057;-58
2022/05/03 12:13:12;;;;;;;17.85;12.82;;;24.30;59.40;;;;;;5011837;28;20026;-57
2022/05/03 12:15:49;;;;;;;18.98;13.52;;;24.60;58.40;;;;;;5016693;28;20367;-62
2022/05/03 12:18:32;;;;;;;20.75;13.93;;;24.80;58.30;;;;;;5028509;28;20489;-58
2022/05/03 12:21:13;;;;;;;20.00;12.40;;;23.90;58.80;;;;;;4992390;28;20022;-59
2022/05/03 12:23:42;;;;;;;18.55;12.70;;;24.40;57.60;;;;;;5009023;28;20050;-58
2022/05/03 12:26:15;;;;;;;19.13;13.40;;;25.40;56.70;;;;;;5031563;28;20026;-58
2022/05/03 12:28:44;;;;;;;19.23;13.70;;;26.30;57.20;;;;;;5031663;28;20482;-57
2022/05/03 12:31:14;;;;;;;18.63;13.93;;;26.60;57.60;;;;;;5031609;28;20378;-58
2022/05/03 12:33:41;;;;;;;20.05;13.85;;;25.40;57.50;;;;;;4991985;28;20050;-57
2022/05/03 12:36:08;;;;;;;19.70;14.07;;;24.10;59.00;;;;;;4991692;28;20489;-60
2022/05/03 12:38:45;;;;;;;17.70;13.23;;;22.40;61.30;;;;;;4991885;28;20081;-64
2022/05/03 12:41:22;;;;;;;35.35;31.08;;;22.00;61.50;;;;;;4992515;28;20478;-64
2022/05/03 12:44:07;;;;;;;18.85;13.18;;;21.50;63.30;;;;;;4992262;28;20451;-65
2022/05/03 12:46:34;;;;;;;18.58;13.38;;;20.80;64.30;;;;;;4991839;28;20050;-66
2022/05/03 12:49:11;;;;;;;19.05;12.82;;;20.40;65.60;;;;;;5004290;28;20021;-66
2022/05/03 12:51:42;;;;;;;20.58;12.80;;;20.30;64.00;;;;;;5031416;28;20521;-66
2022/05/03 12:54:07;;;;;;;17.42;12.80;;;20.40;64.50;;;;;;5005431;28;20516;-66
2022/05/03 12:59:21;;;;;;;21.55;12.77;;;23.90;60.30;;;;;;5014090;28;20036;-64
2022/05/03 13:01:47;;;;;;;17.70;12.48;;;24.40;59.30;;;;;;5013377;28;20449;-64
2022/05/03 13:04:14;;;;;;;17.80;12.57;;;25.50;58.10;;;;;;5014577;28;20026;-66
2022/05/03 13:06:41;;;;;;;18.35;12.07;;;26.50;56.20;;;;;;5015869;28;20021;-65
2022/05/03 13:09:08;;;;;;;17.83;12.38;;;26.50;55.20;;;;;;5014060;28;20061;-64
2022/05/03 13:11:38;;;;;;;17.88;11.88;;;26.70;54.80;;;;;;5014970;28;20022;-66
2022/05/03 13:14:05;;;;;;;18.65;12.25;;;26.70;55.30;;;;;;5014869;28;20030;-65
2022/05/03 13:16:31;;;;;;;18.60;11.77;;;27.00;55.00;;;;;;5015171;28;20406;-66
2022/05/03 13:18:57;;;;;;;18.02;11.50;;;27.90;55.50;;;;;;5014719;28;20026;-66
2022/05/03 13:21:23;;;;;;;16.48;11.63;;;28.30;52.80;;;;;;5014267;28;20378;-66
2022/05/03 13:23:49;;;;;;;17.10;11.43;;;27.00;53.60;;;;;;5014908;28;20017;-67
2022/05/03 13:26:15;;;;;;;16.52;11.40;;;27.50;53.50;;;;;;5015347;28;20030;-66
2022/05/03 13:28:40;;;;;;;17.30;11.68;;;27.70;52.40;;;;;;4664846;28;9999692;-65
2022/05/03 13:31:07;;;;;;;18.27;12.48;;;28.20;52.90;;;;;;5010975;28;20014;-67
2022/05/03 13:33:32;;;;;;;17.00;12.23;;;29.10;52.90;;;;;;5012454;28;20475;-66
2022/05/03 13:41:27;;;;;;;17.88;11.73;;;30.90;51.20;;;;;;5011871;28;20445;-66
2022/05/03 13:43:52;;;;;;;16.08;11.82;;;32.50;50.00;;;;;;5011600;28;20018;-67
2022/05/03 13:46:18;;;;;;;20.08;12.90;;;32.30;49.60;;;;;;5011040;28;20010;-67
2022/05/03 13:48:45;;;;;;;16.77;12.43;;;30.40;48.90;;;;;;5011414;28;20030;-66
2022/05/03 13:51:11;;;;;;;19.77;13.25;;;29.10;50.00;;;;;;5011791;28;20049;-65